createdAt,value
2023-05-05T00:02:15.169Z,12.15
2023-05-05T00:04:41.931Z,11.65
2023-05-05T00:07:08.960Z,10.80
2023-05-05T00:09:35.579Z,11.75
2023-05-05T00:12:02.208Z,11.02
2023-05-05T00:14:28.798Z,11.57
2023-05-05T00:16:55.460Z,11.80
2023-05-05T00:19:22.061Z,12.32
2023-05-05T00:21:48.623Z,10.43
2023-05-05T00:24:15.372Z,10.25
2023-05-05T00:26:41.921Z,9.77
2023-05-05T00:29:08.629Z,8.40
2023-05-05T00:31:35.404Z,8.45
2023-05-05T00:34:02.079Z,8.05
2023-05-05T00:36:28.701Z,8.38
2023-05-05T00:38:55.364Z,7.78
2023-05-05T00:41:21.942Z,7.13
2023-05-05T00:43:48.729Z,7.40
2023-05-05T00:46:26.943Z,7.40
2023-05-05T00:48:54.823Z,7.70
2023-05-05T00:51:22.229Z,7.88
2023-05-05T00:53:49.520Z,7.53
2023-05-05T00:56:17.498Z,8.05
2023-05-05T00:58:44.558Z,8.13
2023-05-05T01:01:12.279Z,8.05
2023-05-05T01:03:39.640Z,7.13
2023-05-05T01:06:10.225Z,6.30
2023-05-05T01:09:13.451Z,6.65
2023-05-05T01:12:05.322Z,7.32
2023-05-05T01:14:43.370Z,6.45
2023-05-05T01:17:17.692Z,6.40
2023-05-05T01:20:13.259Z,6.85
2023-05-05T01:22:45.641Z,7.07
2023-05-05T01:25:33.502Z,7.28
2023-05-05T01:28:12.172Z,7.30
2023-05-05T01:30:59.120Z,7.30
2023-05-05T01:33:31.653Z,6.05
2023-05-05T01:36:04.270Z,5.80
2023-05-05T01:38:40.434Z,5.83
2023-05-05T01:41:22.081Z,5.85
2023-05-05T01:43:51.389Z,6.05
2023-05-05T01:46:21.783Z,5.15
2023-05-05T01:48:49.045Z,5.82
2023-05-05T01:51:18.059Z,5.82
2023-05-05T01:53:47.245Z,6.55
2023-05-05T01:56:15.492Z,5.90
2023-05-05T01:58:45.117Z,6.70
2023-05-05T02:01:13.353Z,7.22
2023-05-05T02:03:40.746Z,7.13
2023-05-05T02:06:08.393Z,7.50
2023-05-05T02:08:37.406Z,7.80
2023-05-05T02:11:05.395Z,6.85
2023-05-05T02:13:32.717Z,8.10
2023-05-05T02:16:00.443Z,7.53
2023-05-05T02:18:28.511Z,7.80
2023-05-05T02:20:55.171Z,7.25
2023-05-05T02:23:21.937Z,7.80
2023-05-05T02:25:57.450Z,7.63
2023-05-05T02:28:33.679Z,9.02
2023-05-05T02:31:00.878Z,7.93
2023-05-05T02:33:30.159Z,8.05
2023-05-05T02:35:57.392Z,8.52
2023-05-05T02:38:27.566Z,8.80
2023-05-05T02:40:56.810Z,8.88
2023-05-05T02:43:25.908Z,9.30
2023-05-05T02:45:52.634Z,8.60
2023-05-05T02:48:19.436Z,8.93
2023-05-05T02:50:46.086Z,8.65
2023-05-05T02:53:12.837Z,8.77
2023-05-05T02:55:45.337Z,8.77
2023-05-05T02:58:21.945Z,8.70
2023-05-05T03:01:19.816Z,8.07
2023-05-05T03:04:06.919Z,8.57
2023-05-05T03:06:57.491Z,9.05
2023-05-05T03:09:36.485Z,8.90
2023-05-05T03:12:07.124Z,8.93
2023-05-05T03:14:41.648Z,9.13
2023-05-05T03:17:11.714Z,8.85
2023-05-05T03:19:42.226Z,9.00
2023-05-05T03:22:09.358Z,8.50
2023-05-05T03:24:35.972Z,8.80
2023-05-05T03:27:03.101Z,8.07
2023-05-05T03:29:30.333Z,8.07
2023-05-05T03:31:57.164Z,8.35
2023-05-05T03:34:23.699Z,9.25
2023-05-05T03:36:50.217Z,8.68
2023-05-05T03:39:17.169Z,7.80
2023-05-05T03:41:43.719Z,7.70
2023-05-05T03:44:10.609Z,8.70
2023-05-05T03:46:37.223Z,8.23
2023-05-05T03:49:03.852Z,8.50
2023-05-05T03:51:31.610Z,8.20
2023-05-05T03:53:58.170Z,8.88
2023-05-05T03:56:24.768Z,8.23
2023-05-05T03:58:51.739Z,7.78
2023-05-05T04:01:18.268Z,8.15
2023-05-05T04:03:44.928Z,7.88
2023-05-05T04:06:11.642Z,8.35
2023-05-05T04:08:38.231Z,7.43
2023-05-05T04:11:04.929Z,7.55
2023-05-05T04:13:31.633Z,7.53
2023-05-05T04:15:59.797Z,7.07
2023-05-05T04:18:26.553Z,6.90
2023-05-05T04:20:53.215Z,7.07
2023-05-05T04:23:19.774Z,6.93
2023-05-05T04:25:46.454Z,7.40
2023-05-05T04:28:13.124Z,7.22
2023-05-05T04:30:39.704Z,7.25
2023-05-05T04:33:06.324Z,7.70
2023-05-05T04:35:32.980Z,7.47
2023-05-05T04:37:59.616Z,7.63
2023-05-05T04:40:29.038Z,8.85
2023-05-05T04:42:55.751Z,8.57
2023-05-05T04:45:22.319Z,8.77
2023-05-05T04:47:49.048Z,7.75
2023-05-05T04:50:16.631Z,8.05
2023-05-05T04:52:43.235Z,8.50
2023-05-05T04:55:11.016Z,8.18
2023-05-05T04:57:37.699Z,8.10
2023-05-05T05:00:05.490Z,8.70
2023-05-05T05:02:32.324Z,9.25
2023-05-05T05:04:59.038Z,8.45
2023-05-05T05:07:26.146Z,8.13
2023-05-05T05:09:52.755Z,8.52
2023-05-05T05:12:19.356Z,8.18
2023-05-05T05:14:45.900Z,7.93
2023-05-05T05:17:12.544Z,8.07
2023-05-05T05:19:39.293Z,7.82
2023-05-05T05:22:05.863Z,7.65
2023-05-05T05:24:32.536Z,7.47
2023-05-05T05:26:59.116Z,7.20
2023-05-05T05:29:27.089Z,7.85
2023-05-05T05:31:53.836Z,7.80
2023-05-05T05:34:20.464Z,7.90
2023-05-05T05:36:47.013Z,7.80
2023-05-05T05:39:13.578Z,7.03
2023-05-05T05:41:40.160Z,7.90
2023-05-05T05:44:06.796Z,7.60
2023-05-05T05:46:33.497Z,8.93
2023-05-05T05:49:00.279Z,7.85
2023-05-05T05:51:27.914Z,7.68
2023-05-05T05:53:55.406Z,8.10
2023-05-05T05:56:23.414Z,8.20
2023-05-05T05:58:50.130Z,7.82
2023-05-05T06:01:16.685Z,8.73
2023-05-05T06:03:43.340Z,7.93
2023-05-05T06:06:10.016Z,9.82
2023-05-05T06:08:36.574Z,9.25
2023-05-05T06:11:03.342Z,8.27
2023-05-05T06:13:29.912Z,8.18
2023-05-05T06:15:56.807Z,8.65
2023-05-05T06:18:23.724Z,8.82
2023-05-05T06:20:51.086Z,8.82
2023-05-05T06:23:18.310Z,8.85
2023-05-05T06:25:44.982Z,8.85
2023-05-05T06:28:11.637Z,9.10
2023-05-05T06:30:38.196Z,8.60
2023-05-05T06:33:04.811Z,8.48
2023-05-05T06:35:32.016Z,9.65
2023-05-05T06:37:58.739Z,9.77
2023-05-05T06:40:25.449Z,9.05
2023-05-05T06:42:51.960Z,9.15
2023-05-05T06:45:18.592Z,9.98
2023-05-05T06:47:45.194Z,10.20
2023-05-05T06:50:12.009Z,10.50
2023-05-05T06:52:38.596Z,9.48
2023-05-05T06:55:05.990Z,10.25
2023-05-05T06:57:32.709Z,10.13
2023-05-05T06:59:59.293Z,9.25
2023-05-05T07:02:26.947Z,9.70
2023-05-05T07:04:55.410Z,9.00
2023-05-05T07:07:22.484Z,8.80
2023-05-05T07:09:49.182Z,8.75
2023-05-05T07:12:15.812Z,8.35
2023-05-05T07:14:42.467Z,7.43
2023-05-05T07:17:09.030Z,7.50
2023-05-05T07:19:35.623Z,7.82
2023-05-05T07:22:02.173Z,7.60
2023-05-05T07:24:31.634Z,8.40
2023-05-05T07:26:59.347Z,9.10
2023-05-05T07:29:25.925Z,9.30
2023-05-05T07:31:52.504Z,9.18
2023-05-05T07:34:19.199Z,9.75
2023-05-05T07:36:45.836Z,9.70
2023-05-05T07:39:15.028Z,9.63
2023-05-05T07:41:42.555Z,9.57
2023-05-05T07:44:09.112Z,9.13
2023-05-05T07:46:35.775Z,9.23
2023-05-05T07:49:02.371Z,8.27
2023-05-05T07:51:28.970Z,8.57
2023-05-05T07:53:55.852Z,9.00
2023-05-05T07:56:22.651Z,9.05
2023-05-05T07:58:49.312Z,10.80
2023-05-05T08:01:15.980Z,14.15
2023-05-05T08:03:42.830Z,17.17
2023-05-05T08:06:09.996Z,16.60
2023-05-05T08:08:37.047Z,16.38
2023-05-05T08:11:06.532Z,17.70
2023-05-05T08:13:33.280Z,14.95
2023-05-05T08:16:00.092Z,15.75
2023-05-05T08:18:27.077Z,16.33
2023-05-05T08:20:54.666Z,17.35
2023-05-05T08:23:21.663Z,15.73
2023-05-05T08:25:48.253Z,15.13
2023-05-05T08:28:14.887Z,13.93
2023-05-05T08:30:41.805Z,12.43
2023-05-05T08:33:08.396Z,13.65
2023-05-05T08:35:35.060Z,13.88
2023-05-05T08:38:01.591Z,14.23
2023-05-05T08:40:36.606Z,12.40
2023-05-05T08:43:04.278Z,12.18
2023-05-05T08:45:31.367Z,11.40
2023-05-05T08:48:03.365Z,12.18
2023-05-05T08:50:30.864Z,13.02
2023-05-05T08:53:21.292Z,12.13
2023-05-05T08:55:52.487Z,11.40
2023-05-05T08:58:19.679Z,11.80
2023-05-05T09:00:46.692Z,10.93
2023-05-05T09:03:14.643Z,9.40
2023-05-05T09:05:42.778Z,8.80
2023-05-05T09:08:11.097Z,9.10
2023-05-05T09:10:41.443Z,8.30
2023-05-05T09:13:08.273Z,8.25
2023-05-05T09:15:34.979Z,7.05
2023-05-05T09:18:02.054Z,5.38
2023-05-05T09:20:37.005Z,5.15
2023-05-05T09:23:15.164Z,5.03
2023-05-05T09:25:45.123Z,4.20
2023-05-05T09:28:13.403Z,3.70
2023-05-05T09:30:42.005Z,3.83
2023-05-05T09:33:08.871Z,3.70
2023-05-05T09:35:53.182Z,4.03
2023-05-05T09:38:20.661Z,3.80
2023-05-05T09:40:49.486Z,3.42
2023-05-05T09:43:17.941Z,3.60
2023-05-05T09:45:44.885Z,3.90
2023-05-05T09:48:31.414Z,3.35
2023-05-05T09:50:58.766Z,3.13
2023-05-05T09:53:26.693Z,3.28
2023-05-05T09:55:54.306Z,4.93
2023-05-05T09:58:31.118Z,4.90
2023-05-05T10:00:58.866Z,5.45
2023-05-05T10:03:26.072Z,4.90
2023-05-05T10:05:57.668Z,5.00
2023-05-05T10:08:26.882Z,5.20
2023-05-05T10:10:57.744Z,6.03
2023-05-05T10:13:25.408Z,5.60
2023-05-05T10:15:54.447Z,6.15
2023-05-05T10:18:25.944Z,5.88
2023-05-05T10:21:01.205Z,5.65
2023-05-05T10:23:42.110Z,6.30
2023-05-05T10:26:13.000Z,5.97
2023-05-05T10:29:08.278Z,5.97
2023-05-05T10:31:47.668Z,5.78
2023-05-05T10:34:23.337Z,6.35
2023-05-05T10:36:51.417Z,5.82
2023-05-05T10:39:20.144Z,6.35
2023-05-05T10:41:48.188Z,5.28
2023-05-05T10:44:15.516Z,3.25
2023-05-05T10:46:43.109Z,1.80
2023-05-05T10:49:34.610Z,2.00
2023-05-05T10:52:08.711Z,1.55
2023-05-05T10:55:01.350Z,1.52
2023-05-05T10:57:32.126Z,1.50
2023-05-05T10:59:58.741Z,1.42
2023-05-05T11:02:26.864Z,2.10
2023-05-05T11:05:09.727Z,2.05
2023-05-05T11:07:37.418Z,2.13
2023-05-05T11:10:08.725Z,1.88
2023-05-05T11:13:03.448Z,2.10
2023-05-05T11:15:30.400Z,2.03
2023-05-05T11:18:05.731Z,1.95
2023-05-05T11:20:43.748Z,2.85
2023-05-05T11:23:10.396Z,1.80
2023-05-05T11:25:40.754Z,1.83
2023-05-05T11:28:18.392Z,2.83
2023-05-05T11:30:58.380Z,2.10
2023-05-05T11:33:37.166Z,2.08
2023-05-05T11:36:07.961Z,1.90
2023-05-05T11:38:56.484Z,1.50
2023-05-05T11:41:32.255Z,1.63
2023-05-05T11:44:29.251Z,1.20
2023-05-05T11:46:55.734Z,1.75
2023-05-05T11:49:29.912Z,1.23
2023-05-05T11:52:00.533Z,1.48
2023-05-05T11:54:28.181Z,1.30
2023-05-05T11:56:59.440Z,1.40
2023-05-05T11:59:26.110Z,1.40
2023-05-05T12:01:52.936Z,1.42
2023-05-05T12:04:20.652Z,1.60
2023-05-05T12:06:49.026Z,1.70
2023-05-05T12:09:20.259Z,2.10
2023-05-05T12:11:54.122Z,1.90
2023-05-05T12:14:21.796Z,2.22
2023-05-05T12:17:08.451Z,1.75
2023-05-05T12:19:36.301Z,2.38
2023-05-05T12:22:04.532Z,2.20
2023-05-05T12:24:31.730Z,2.08
2023-05-05T12:27:16.772Z,2.10
2023-05-05T12:29:43.311Z,1.88
2023-05-05T12:32:19.758Z,2.00
2023-05-05T12:34:46.786Z,1.85
2023-05-05T12:37:13.402Z,1.45
2023-05-05T12:39:39.972Z,1.27
2023-05-05T12:42:08.291Z,1.40
2023-05-05T12:44:39.324Z,1.75
2023-05-05T12:47:07.036Z,1.83
2023-05-05T12:49:53.062Z,2.08
2023-05-05T12:52:20.909Z,2.20
2023-05-05T12:54:59.502Z,2.25
2023-05-05T12:57:26.440Z,2.13
2023-05-05T12:59:53.738Z,2.42
2023-05-05T13:02:21.270Z,2.85
2023-05-05T13:04:53.369Z,3.03
2023-05-05T13:07:21.968Z,2.50
2023-05-05T13:09:49.938Z,2.75
2023-05-05T13:12:22.187Z,2.70
2023-05-05T13:17:17.116Z,3.33
2023-05-05T13:19:46.617Z,2.78
2023-05-05T13:22:13.758Z,2.55
2023-05-05T13:24:50.493Z,1.95
2023-05-05T13:27:22.286Z,2.53
2023-05-05T13:29:48.849Z,2.20
2023-05-05T13:32:15.566Z,2.50
2023-05-05T13:34:43.633Z,2.65
2023-05-05T13:37:10.528Z,2.65
2023-05-05T13:39:37.342Z,2.38
2023-05-05T13:42:04.133Z,3.20
2023-05-05T13:44:30.693Z,2.80
2023-05-05T13:46:57.699Z,2.58
2023-05-05T13:49:24.439Z,3.08
2023-05-05T13:51:51.241Z,2.80
2023-05-05T13:54:17.939Z,2.47
2023-05-05T13:56:44.932Z,2.40
2023-05-05T13:59:11.587Z,2.63
2023-05-05T14:01:38.421Z,2.60
2023-05-05T14:04:05.890Z,2.20
2023-05-05T14:06:33.715Z,2.60
2023-05-05T14:09:00.658Z,2.80
2023-05-05T14:11:27.555Z,2.10
2023-05-05T14:13:54.214Z,1.95
2023-05-05T14:16:20.986Z,1.88
2023-05-05T14:18:47.682Z,2.40
2023-05-05T14:21:14.302Z,2.05
2023-05-05T14:23:50.265Z,1.90
2023-05-05T14:26:16.950Z,2.15
2023-05-05T14:28:43.750Z,2.00
2023-05-05T14:31:11.343Z,2.22
2023-05-05T14:33:38.044Z,2.45
2023-05-05T14:36:05.076Z,2.25
2023-05-05T14:38:31.986Z,2.30
2023-05-05T14:40:58.598Z,2.28
2023-05-05T14:43:25.677Z,2.60
2023-05-05T14:45:53.095Z,2.47
2023-05-05T14:48:22.533Z,2.20
2023-05-05T14:50:50.033Z,2.20
2023-05-05T14:53:18.939Z,2.35
2023-05-05T14:55:45.574Z,2.10
2023-05-05T14:58:12.253Z,1.77
2023-05-05T15:00:39.045Z,1.83
2023-05-05T15:03:05.767Z,2.00
2023-05-05T15:05:32.548Z,2.08
2023-05-05T15:07:59.472Z,2.25
2023-05-05T15:10:26.340Z,2.10
2023-05-05T15:12:53.036Z,1.30
2023-05-05T15:15:19.949Z,1.90
2023-05-05T15:17:46.648Z,1.75
2023-05-05T15:20:13.325Z,1.80
2023-05-05T15:22:39.985Z,1.58
2023-05-05T15:25:10.861Z,1.98
2023-05-05T15:27:38.741Z,1.75
2023-05-05T15:30:06.568Z,1.70
2023-05-05T15:32:33.831Z,1.90
2023-05-05T15:35:00.665Z,1.67
2023-05-05T15:37:29.060Z,2.33
2023-05-05T15:39:56.306Z,2.42
2023-05-05T15:42:23.009Z,2.33
2023-05-05T15:44:49.613Z,2.80
2023-05-05T15:47:16.299Z,2.20
2023-05-05T15:49:42.995Z,2.30
2023-05-05T15:52:10.118Z,2.80
2023-05-05T15:54:36.678Z,2.25
2023-05-05T15:57:03.354Z,2.80
2023-05-05T15:59:29.960Z,2.90
2023-05-05T16:01:56.571Z,2.53
2023-05-05T16:04:23.207Z,2.42
2023-05-05T16:06:49.787Z,2.90
2023-05-05T16:09:16.542Z,2.38
2023-05-05T16:11:43.601Z,2.75
2023-05-05T16:14:10.261Z,2.55
2023-05-05T16:16:36.875Z,2.72
2023-05-05T16:19:03.567Z,2.30
2023-05-05T16:21:30.214Z,2.67
2023-05-05T16:23:57.040Z,3.13
2023-05-05T16:26:23.923Z,2.92
2023-05-05T16:28:50.473Z,3.50
2023-05-05T16:31:17.108Z,3.28
2023-05-05T16:33:44.140Z,3.10
2023-05-05T16:36:12.162Z,2.90
2023-05-05T16:38:42.462Z,3.15
2023-05-05T16:41:10.955Z,3.08
2023-05-05T16:43:37.575Z,3.22
2023-05-05T16:46:04.357Z,2.90
2023-05-05T16:48:31.053Z,3.63
2023-05-05T16:50:57.951Z,3.22
2023-05-05T16:53:25.522Z,3.65
2023-05-05T16:55:53.323Z,3.72
2023-05-05T16:58:21.336Z,4.25
2023-05-05T17:00:49.196Z,4.22
2023-05-05T17:03:20.354Z,4.13
2023-05-05T17:05:50.286Z,4.45
2023-05-05T17:08:17.463Z,5.00
2023-05-05T17:10:45.556Z,4.20
2023-05-05T17:13:13.949Z,5.07
2023-05-05T17:15:41.801Z,4.93
2023-05-05T17:18:08.905Z,4.50
2023-05-05T17:20:36.595Z,4.90
2023-05-05T17:23:03.643Z,4.95
2023-05-05T17:25:30.661Z,4.70
2023-05-05T17:27:57.572Z,4.93
2023-05-05T17:30:24.575Z,5.90
2023-05-05T17:32:51.513Z,5.20
2023-05-05T17:35:18.600Z,5.80
2023-05-05T17:37:45.270Z,5.60
2023-05-05T17:40:12.039Z,5.22
2023-05-05T17:42:39.311Z,5.50
2023-05-05T17:45:06.702Z,5.40
2023-05-05T17:47:33.606Z,6.13
2023-05-05T17:50:00.436Z,5.40
2023-05-05T17:52:27.065Z,5.50
2023-05-05T17:54:53.761Z,5.40
2023-05-05T17:57:23.282Z,5.00
2023-05-05T17:59:51.984Z,5.57
2023-05-05T18:02:19.149Z,5.70
2023-05-05T18:04:49.574Z,5.57
2023-05-05T18:07:19.000Z,5.88
2023-05-05T18:09:45.571Z,6.10
2023-05-05T18:12:12.512Z,6.38
2023-05-05T18:14:39.182Z,6.25
2023-05-05T18:17:05.829Z,5.50
2023-05-05T18:19:32.641Z,5.97
2023-05-05T18:21:59.423Z,5.22
2023-05-05T18:24:26.241Z,4.80
2023-05-05T18:26:53.209Z,5.97
2023-05-05T18:29:21.890Z,4.90
2023-05-05T18:31:51.747Z,5.30
2023-05-05T18:34:20.779Z,5.20
2023-05-05T18:36:48.141Z,5.35
2023-05-05T18:39:15.315Z,5.88
2023-05-05T18:41:42.111Z,6.43
2023-05-05T18:44:08.877Z,5.40
2023-05-05T18:46:35.762Z,5.30
2023-05-05T18:49:03.298Z,6.43
2023-05-05T18:51:30.033Z,5.55
2023-05-05T18:53:56.807Z,5.35
2023-05-05T18:56:23.508Z,5.55
2023-05-05T18:58:50.218Z,5.70
2023-05-05T19:01:17.061Z,6.93
2023-05-05T19:03:48.163Z,5.90
2023-05-05T19:06:15.541Z,5.65
2023-05-05T19:08:45.857Z,6.22
2023-05-05T19:11:14.881Z,5.90
2023-05-05T19:13:42.345Z,6.93
2023-05-05T19:16:11.268Z,6.72
2023-05-05T19:18:38.797Z,6.55
2023-05-05T19:21:05.945Z,7.10
2023-05-05T19:23:33.636Z,7.13
2023-05-05T19:26:00.733Z,7.15
2023-05-05T19:28:27.454Z,7.85
2023-05-05T19:30:54.287Z,8.02
2023-05-05T19:33:21.132Z,8.40
2023-05-05T19:35:48.039Z,8.18
2023-05-05T19:38:15.106Z,7.63
2023-05-05T19:40:43.617Z,7.38
2023-05-05T19:43:10.500Z,7.47
2023-05-05T19:45:37.584Z,7.10
2023-05-05T19:48:04.756Z,8.23
2023-05-05T19:50:31.850Z,7.70
2023-05-05T19:52:58.708Z,7.40
2023-05-05T19:55:25.822Z,8.95
2023-05-05T19:57:52.654Z,8.95
2023-05-05T20:00:20.046Z,8.23
2023-05-05T20:02:47.512Z,8.43
2023-05-05T20:05:16.376Z,8.02
2023-05-05T20:07:44.148Z,8.57
2023-05-05T20:10:13.443Z,7.88
2023-05-05T20:12:47.778Z,8.80
2023-05-05T20:15:18.654Z,9.00
2023-05-05T20:17:46.722Z,9.25
2023-05-05T20:20:20.529Z,10.13
2023-05-05T20:22:48.615Z,9.48
2023-05-05T20:25:16.423Z,9.63
2023-05-05T20:27:43.721Z,9.45
2023-05-05T20:30:11.774Z,9.63
2023-05-05T20:32:38.707Z,9.60
2023-05-05T20:35:06.230Z,10.02
2023-05-05T20:37:33.130Z,9.63
2023-05-05T20:39:59.763Z,10.35
2023-05-05T20:42:27.840Z,10.50
2023-05-05T20:44:54.706Z,9.48
2023-05-05T20:47:21.349Z,9.80
2023-05-05T20:49:48.176Z,9.95
2023-05-05T20:52:14.844Z,10.00
2023-05-05T20:54:41.463Z,10.35
2023-05-05T20:57:08.173Z,10.85
2023-05-05T20:59:34.824Z,10.57
2023-05-05T21:02:01.494Z,10.02
2023-05-05T21:04:28.166Z,10.02
2023-05-05T21:06:54.975Z,10.60
2023-05-05T21:09:22.190Z,10.20
2023-05-05T21:11:48.951Z,10.50
2023-05-05T21:14:15.868Z,10.45
2023-05-05T21:16:42.828Z,9.88
2023-05-05T21:19:09.566Z,10.60
2023-05-05T21:21:36.279Z,9.98
2023-05-05T21:24:04.350Z,9.73
2023-05-05T21:26:32.139Z,9.45
2023-05-05T21:28:58.896Z,9.95
2023-05-05T21:31:25.544Z,8.95
2023-05-05T21:33:52.162Z,10.18
2023-05-05T21:36:19.533Z,9.65
2023-05-05T21:38:46.327Z,9.95
2023-05-05T21:41:12.982Z,9.88
2023-05-05T21:43:39.553Z,9.93
2023-05-05T21:46:06.108Z,9.48
2023-05-05T21:48:32.909Z,9.57
2023-05-05T21:50:59.751Z,9.95
2023-05-05T21:53:26.380Z,9.80
2023-05-05T21:55:53.055Z,10.65
2023-05-05T21:58:19.810Z,10.50
2023-05-05T22:00:49.520Z,10.68
2023-05-05T22:03:16.455Z,10.40
2023-05-05T22:05:43.109Z,10.35
2023-05-05T22:08:09.668Z,10.73
2023-05-05T22:10:36.346Z,10.43
2023-05-05T22:13:02.956Z,11.00
2023-05-05T22:15:35.695Z,10.43
2023-05-05T22:18:09.719Z,10.55
2023-05-05T22:20:37.154Z,10.35
2023-05-05T22:23:03.743Z,11.15
2023-05-05T22:25:30.362Z,11.30
2023-05-05T22:27:57.005Z,10.85
2023-05-05T22:30:23.522Z,10.85
2023-05-05T22:32:50.195Z,10.95
2023-05-05T22:35:16.796Z,10.75
2023-05-05T22:37:43.555Z,11.00
2023-05-05T22:40:10.528Z,11.15
2023-05-05T22:42:37.220Z,10.55
2023-05-05T22:45:04.487Z,10.65
2023-05-05T22:47:31.226Z,10.35
2023-05-05T22:49:58.401Z,10.40
2023-05-05T22:52:25.785Z,10.50
2023-05-05T22:54:52.434Z,10.27
2023-05-05T22:57:19.274Z,9.80
2023-05-05T22:59:46.068Z,10.45
2023-05-05T23:02:12.749Z,9.98
2023-05-05T23:04:39.495Z,9.95
2023-05-05T23:07:06.131Z,10.23
2023-05-05T23:09:32.696Z,9.43
2023-05-05T23:11:59.329Z,9.77
2023-05-05T23:14:26.210Z,9.73
2023-05-05T23:16:52.916Z,9.98
2023-05-05T23:19:19.765Z,10.30
2023-05-05T23:21:53.314Z,9.80
2023-05-05T23:24:20.549Z,9.80
2023-05-05T23:26:47.125Z,10.05
2023-05-05T23:29:14.984Z,10.10
2023-05-05T23:31:41.725Z,9.45
2023-05-05T23:34:08.508Z,9.50
2023-05-05T23:36:35.238Z,10.77
2023-05-05T23:39:01.929Z,10.70
2023-05-05T23:41:28.533Z,10.40
2023-05-05T23:43:55.155Z,10.55
2023-05-05T23:46:21.795Z,10.10
2023-05-05T23:48:49.718Z,9.98
2023-05-05T23:51:16.844Z,10.60
2023-05-05T23:53:43.562Z,10.50
2023-05-05T23:56:10.121Z,10.25
2023-05-05T23:58:36.946Z,10.65
